sensor_id;sensor_type;location;lat;lon;timestamp;pressure;altitude;pressure_sealevel;temperature;humidity
59391;BME280;53405;57.012;40.984;2023-03-18T00:01:55;101826.41;;;-4.12;69.99
59391;BME280;53405;57.012;40.984;2023-03-18T00:04:23;101817.94;;;-4.16;69.79
59391;BME280;53405;57.012;40.984;2023-03-18T00:06:50;101832.47;;;-4.15;69.86
59391;BME280;53405;57.012;40.984;2023-03-18T00:09:17;101823.16;;;-4.19;70.43
59391;BME280;53405;57.012;40.984;2023-03-18T00:11:45;101818.28;;;-4.30;70.19
59391;BME280;53405;57.012;40.984;2023-03-18T00:14:13;101845.63;;;-4.27;70.01
59391;BME280;53405;57.012;40.984;2023-03-18T00:16:40;101827.81;;;-4.33;69.72
59391;BME280;53405;57.012;40.984;2023-03-18T00:19:08;101837.25;;;-4.36;69.98
59391;BME280;53405;57.012;40.984;2023-03-18T00:21:35;101834.63;;;-4.32;70.40
59391;BME280;53405;57.012;40.984;2023-03-18T00:24:03;101845.59;;;-4.26;70.85
59391;BME280;53405;57.012;40.984;2023-03-18T00:26:30;101849.16;;;-4.30;70.08
59391;BME280;53405;57.012;40.984;2023-03-18T00:28:58;101844.88;;;-4.31;70.28
59391;BME280;53405;57.012;40.984;2023-03-18T00:31:25;101844.91;;;-4.32;69.93
59391;BME280;53405;57.012;40.984;2023-03-18T00:33:54;101852.72;;;-4.37;70.51
59391;BME280;53405;57.012;40.984;2023-03-18T00:36:21;101851.00;;;-4.35;70.88
59391;BME280;53405;57.012;40.984;2023-03-18T00:38:54;101851.81;;;-4.34;70.69
59391;BME280;53405;57.012;40.984;2023-03-18T00:41:30;101857.91;;;-4.39;70.59
59391;BME280;53405;57.012;40.984;2023-03-18T00:44:00;101841.88;;;-4.50;70.52
59391;BME280;53405;57.012;40.984;2023-03-18T00:46:34;101861.53;;;-4.46;70.43
59391;BME280;53405;57.012;40.984;2023-03-18T00:49:05;101858.81;;;-4.40;71.04
59391;BME280;53405;57.012;40.984;2023-03-18T00:51:34;101866.59;;;-4.43;71.17
59391;BME280;53405;57.012;40.984;2023-03-18T00:54:05;101871.72;;;-4.41;70.43
59391;BME280;53405;57.012;40.984;2023-03-18T00:56:34;101817.69;;;-4.79;70.77
59391;BME280;53405;57.012;40.984;2023-03-18T00:59:04;101871.25;;;-4.59;70.77
59391;BME280;53405;57.012;40.984;2023-03-18T01:01:33;101881.41;;;-4.54;70.60
59391;BME280;53405;57.012;40.984;2023-03-18T01:04:01;101885.69;;;-4.53;71.05
59391;BME280;53405;57.012;40.984;2023-03-18T01:06:32;101891.78;;;-4.57;71.40
59391;BME280;53405;57.012;40.984;2023-03-18T01:09:02;101877.97;;;-4.53;71.36
59391;BME280;53405;57.012;40.984;2023-03-18T01:11:31;101834.25;;;-4.92;70.81
59391;BME280;53405;57.012;40.984;2023-03-18T01:13:59;101888.56;;;-4.67;71.27
59391;BME280;53405;57.012;40.984;2023-03-18T01:16:26;101892.75;;;-4.63;71.07
59391;BME280;53405;57.012;40.984;2023-03-18T01:18:54;101898.78;;;-4.64;70.67
59391;BME280;53405;57.012;40.984;2023-03-18T01:21:22;101857.34;;;-4.91;71.15
59391;BME280;53405;57.012;40.984;2023-03-18T01:23:54;101889.59;;;-4.74;71.35
59391;BME280;53405;57.012;40.984;2023-03-18T01:26:21;101902.34;;;-4.69;71.53
59391;BME280;53405;57.012;40.984;2023-03-18T01:28:50;101911.69;;;-4.67;71.76
59391;BME280;53405;57.012;40.984;2023-03-18T01:31:19;101909.97;;;-4.65;71.22
59391;BME280;53405;57.012;40.984;2023-03-18T01:33:47;101915.19;;;-4.69;71.46
59391;BME280;53405;57.012;40.984;2023-03-18T01:36:15;101905.13;;;-4.80;71.69
59391;BME280;53405;57.012;40.984;2023-03-18T01:38:53;101901.97;;;-4.93;71.61
59391;BME280;53405;57.012;40.984;2023-03-18T01:41:20;101924.75;;;-4.76;71.60
59391;BME280;53405;57.012;40.984;2023-03-18T01:43:48;101918.16;;;-4.88;71.62
59391;BME280;53405;57.012;40.984;2023-03-18T01:46:45;101929.16;;;-4.83;71.89
59391;BME280;53405;57.012;40.984;2023-03-18T01:51:56;101941.09;;;-4.79;72.26
59391;BME280;53405;57.012;40.984;2023-03-18T01:54:26;101934.25;;;-4.80;72.04
59391;BME280;53405;57.012;40.984;2023-03-18T01:56:54;101938.53;;;-4.79;71.70
59391;BME280;53405;57.012;40.984;2023-03-18T01:59:26;101949.75;;;-4.84;71.78
59391;BME280;53405;57.012;40.984;2023-03-18T02:04:37;101951.53;;;-4.86;72.49
59391;BME280;53405;57.012;40.984;2023-03-18T02:07:05;101950.78;;;-4.92;71.94
59391;BME280;53405;57.012;40.984;2023-03-18T02:09:33;101957.59;;;-4.91;72.73
59391;BME280;53405;57.012;40.984;2023-03-18T02:12:02;101897.63;;;-5.35;72.52
59391;BME280;53405;57.012;40.984;2023-03-18T02:14:30;101957.31;;;-5.20;73.97
59391;BME280;53405;57.012;40.984;2023-03-18T02:17:11;101967.63;;;-5.22;74.82
59391;BME280;53405;57.012;40.984;2023-03-18T02:22:34;101972.53;;;-5.10;74.52
59391;BME280;53405;57.012;40.984;2023-03-18T02:27:59;101976.06;;;-5.15;73.72
59391;BME280;53405;57.012;40.984;2023-03-18T02:30:47;101926.13;;;-5.47;74.52
59391;BME280;53405;57.012;40.984;2023-03-18T02:33:17;101989.78;;;-5.16;74.78
59391;BME280;53405;57.012;40.984;2023-03-18T02:35:48;101993.13;;;-5.13;75.21
59391;BME280;53405;57.012;40.984;2023-03-18T02:38:17;101993.94;;;-5.07;74.21
59391;BME280;53405;57.012;40.984;2023-03-18T02:40:45;101995.75;;;-5.16;73.86
59391;BME280;53405;57.012;40.984;2023-03-18T02:43:30;102002.75;;;-5.22;74.96
59391;BME280;53405;57.012;40.984;2023-03-18T02:48:39;102007.84;;;-5.21;75.00
59391;BME280;53405;57.012;40.984;2023-03-18T02:51:09;101965.50;;;-5.47;74.25
59391;BME280;53405;57.012;40.984;2023-03-18T02:53:37;102009.63;;;-5.24;75.20
59391;BME280;53405;57.012;40.984;2023-03-18T02:56:05;102001.97;;;-5.28;74.72
59391;BME280;53405;57.012;40.984;2023-03-18T02:58:34;101993.53;;;-5.34;74.80
59391;BME280;53405;57.012;40.984;2023-03-18T03:01:04;102008.84;;;-5.28;74.74
59391;BME280;53405;57.012;40.984;2023-03-18T03:03:33;102012.25;;;-5.28;74.74
59391;BME280;53405;57.012;40.984;2023-03-18T03:06:01;102007.31;;;-5.38;74.26
59391;BME280;53405;57.012;40.984;2023-03-18T03:08:30;102007.31;;;-5.40;74.53
59391;BME280;53405;57.012;40.984;2023-03-18T03:10:57;101976.03;;;-5.62;74.71
59391;BME280;53405;57.012;40.984;2023-03-18T03:13:26;102010.81;;;-5.44;74.51
59391;BME280;53405;57.012;40.984;2023-03-18T03:15:54;102026.00;;;-5.32;74.22
59391;BME280;53405;57.012;40.984;2023-03-18T03:18:21;101987.06;;;-5.57;74.15
59391;BME280;53405;57.012;40.984;2023-03-18T03:20:49;102037.16;;;-5.31;74.50
59391;BME280;53405;57.012;40.984;2023-03-18T03:23:19;102027.69;;;-5.29;73.91
59391;BME280;53405;57.012;40.984;2023-03-18T03:25:47;102027.78;;;-5.34;74.36
59391;BME280;53405;57.012;40.984;2023-03-18T03:28:15;102030.25;;;-5.29;74.26
59391;BME280;53405;57.012;40.984;2023-03-18T03:30:43;102031.16;;;-5.32;74.41
59391;BME280;53405;57.012;40.984;2023-03-18T03:33:11;102036.28;;;-5.32;74.19
59391;BME280;53405;57.012;40.984;2023-03-18T03:35:39;102042.34;;;-5.34;74.62
59391;BME280;53405;57.012;40.984;2023-03-18T03:38:07;102038.13;;;-5.38;74.72
59391;BME280;53405;57.012;40.984;2023-03-18T03:40:36;101994.84;;;-5.62;74.43
59391;BME280;53405;57.012;40.984;2023-03-18T03:43:04;102040.56;;;-5.31;74.58
59391;BME280;53405;57.012;40.984;2023-03-18T03:45:32;102030.44;;;-5.40;74.69
59391;BME280;53405;57.012;40.984;2023-03-18T03:47:59;102037.22;;;-5.36;74.60
59391;BME280;53405;57.012;40.984;2023-03-18T03:50:27;101987.13;;;-5.62;74.02
59391;BME280;53405;57.012;40.984;2023-03-18T03:52:55;102020.13;;;-5.38;73.85
59391;BME280;53405;57.012;40.984;2023-03-18T03:55:23;102020.94;;;-5.36;74.20
59391;BME280;53405;57.012;40.984;2023-03-18T03:57:53;102049.06;;;-5.27;74.14
59391;BME280;53405;57.012;40.984;2023-03-18T04:00:21;102047.25;;;-5.22;73.93
59391;BME280;53405;57.012;40.984;2023-03-18T04:02:51;102045.47;;;-5.17;73.96
59391;BME280;53405;57.012;40.984;2023-03-18T04:05:23;102055.00;;;-5.25;73.79
59391;BME280;53405;57.012;40.984;2023-03-18T04:07:52;102049.00;;;-5.24;74.29
59391;BME280;53405;57.012;40.984;2023-03-18T04:10:30;102046.59;;;-5.33;74.48
59391;BME280;53405;57.012;40.984;2023-03-18T04:12:58;102061.91;;;-5.27;74.69
59391;BME280;53405;57.012;40.984;2023-03-18T04:15:29;102059.25;;;-5.22;74.52
59391;BME280;53405;57.012;40.984;2023-03-18T04:18:01;102033.81;;;-5.38;74.16
59391;BME280;53405;57.012;40.984;2023-03-18T04:20:36;102073.69;;;-5.14;74.27
59391;BME280;53405;57.012;40.984;2023-03-18T04:23:12;102047.34;;;-5.27;73.97
59391;BME280;53405;57.012;40.984;2023-03-18T04:25:40;102069.31;;;-5.09;73.80
59391;BME280;53405;57.012;40.984;2023-03-18T04:28:07;102070.09;;;-5.05;73.81
59391;BME280;53405;57.012;40.984;2023-03-18T04:30:36;102070.06;;;-5.03;73.27
59391;BME280;53405;57.012;40.984;2023-03-18T04:33:07;102074.34;;;-5.02;73.39
59391;BME280;53405;57.012;40.984;2023-03-18T04:35:39;102072.47;;;-4.94;73.70
59391;BME280;53405;57.012;40.984;2023-03-18T04:38:10;102080.09;;;-4.88;73.08
59391;BME280;53405;57.012;40.984;2023-03-18T04:40:38;102079.22;;;-4.87;72.25
59391;BME280;53405;57.012;40.984;2023-03-18T04:43:05;102082.63;;;-4.86;72.30
59391;BME280;53405;57.012;40.984;2023-03-18T04:45:33;102080.03;;;-4.85;71.95
59391;BME280;53405;57.012;40.984;2023-03-18T04:48:02;102069.03;;;-4.93;71.28
59391;BME280;53405;57.012;40.984;2023-03-18T04:50:35;102090.41;;;-4.91;71.29
59391;BME280;53405;57.012;40.984;2023-03-18T04:53:05;102053.19;;;-5.17;71.24
59391;BME280;53405;57.012;40.984;2023-03-18T04:55:33;102098.13;;;-4.91;71.12
59391;BME280;53405;57.012;40.984;2023-03-18T04:58:02;102101.47;;;-4.86;71.57
59391;BME280;53405;57.012;40.984;2023-03-18T05:00:36;102100.53;;;-4.82;71.35
59391;BME280;53405;57.012;40.984;2023-03-18T05:03:19;102108.09;;;-4.73;71.08
59391;BME280;53405;57.012;40.984;2023-03-18T05:05:47;102106.31;;;-4.69;70.92
59391;BME280;53405;57.012;40.984;2023-03-18T05:08:19;102107.94;;;-4.63;70.94
59391;BME280;53405;57.012;40.984;2023-03-18T05:10:48;102111.22;;;-4.57;70.35
59391;BME280;53405;57.012;40.984;2023-03-18T05:13:17;102113.63;;;-4.47;70.38
59391;BME280;53405;57.012;40.984;2023-03-18T05:15:45;102111.84;;;-4.44;70.35
59391;BME280;53405;57.012;40.984;2023-03-18T05:18:13;102120.22;;;-4.34;70.24
59391;BME280;53405;57.012;40.984;2023-03-18T05:20:45;102120.78;;;-4.20;70.10
59391;BME280;53405;57.012;40.984;2023-03-18T05:23:15;102121.44;;;-4.08;69.68
59391;BME280;53405;57.012;40.984;2023-03-18T05:25:49;102117.72;;;-3.95;69.51
59391;BME280;53405;57.012;40.984;2023-03-18T05:28:18;102126.94;;;-3.83;68.77
59391;BME280;53405;57.012;40.984;2023-03-18T05:31:06;102096.38;;;-4.00;68.44
59391;BME280;53405;57.012;40.984;2023-03-18T05:33:38;102128.31;;;-3.68;68.29
59391;BME280;53405;57.012;40.984;2023-03-18T05:36:10;102138.31;;;-3.54;68.49
59391;BME280;53405;57.012;40.984;2023-03-18T05:38:48;102118.47;;;-3.51;68.43
59391;BME280;53405;57.012;40.984;2023-03-18T05:41:16;102138.69;;;-3.34;67.92
59391;BME280;53405;57.012;40.984;2023-03-18T05:43:43;102133.41;;;-3.28;67.53
59391;BME280;53405;57.012;40.984;2023-03-18T05:46:11;102133.25;;;-3.21;67.14
59391;BME280;53405;57.012;40.984;2023-03-18T05:48:54;102129.81;;;-3.22;67.10
59391;BME280;53405;57.012;40.984;2023-03-18T05:51:27;102114.47;;;-3.27;67.12
59391;BME280;53405;57.012;40.984;2023-03-18T05:53:55;102126.16;;;-3.12;67.32
59391;BME280;53405;57.012;40.984;2023-03-18T05:56:26;102138.63;;;-2.95;67.31
59391;BME280;53405;57.012;40.984;2023-03-18T05:58:57;102139.34;;;-2.89;66.83
59391;BME280;53405;57.012;40.984;2023-03-18T06:01:45;102150.28;;;-2.80;66.41
59391;BME280;53405;57.012;40.984;2023-03-18T06:04:14;102139.88;;;-2.77;66.90
59391;BME280;53405;57.012;40.984;2023-03-18T06:06:43;102140.78;;;-2.79;65.40
59391;BME280;53405;57.012;40.984;2023-03-18T06:09:11;102149.13;;;-2.68;65.75
59391;BME280;53405;57.012;40.984;2023-03-18T06:11:42;102161.69;;;-2.56;66.16
59391;BME280;53405;57.012;40.984;2023-03-18T06:14:11;102159.03;;;-2.52;65.50
59391;BME280;53405;57.012;40.984;2023-03-18T06:16:39;102169.06;;;-2.42;65.29
59391;BME280;53405;57.012;40.984;2023-03-18T06:19:08;102172.13;;;-2.27;65.21
59391;BME280;53405;57.012;40.984;2023-03-18T06:21:38;102158.34;;;-2.26;64.89
59391;BME280;53405;57.012;40.984;2023-03-18T06:24:06;102173.28;;;-2.06;64.86
59391;BME280;53405;57.012;40.984;2023-03-18T06:26:35;102171.94;;;-1.90;64.90
59391;BME280;53405;57.012;40.984;2023-03-18T06:29:03;102177.94;;;-1.89;64.11
59391;BME280;53405;57.012;40.984;2023-03-18T06:31:32;102173.03;;;-1.97;63.49
59391;BME280;53405;57.012;40.984;2023-03-18T06:34:01;102171.84;;;-1.87;63.95
59391;BME280;53405;57.012;40.984;2023-03-18T06:36:32;102162.16;;;-1.78;63.03
59391;BME280;53405;57.012;40.984;2023-03-18T06:39:03;102138.81;;;-2.05;62.60
59391;BME280;53405;57.012;40.984;2023-03-18T06:41:31;102156.94;;;-1.77;63.51
59391;BME280;53405;57.012;40.984;2023-03-18T06:44:17;102179.59;;;-1.57;62.56
59391;BME280;53405;57.012;40.984;2023-03-18T06:46:46;102180.91;;;-1.43;62.21
59391;BME280;53405;57.012;40.984;2023-03-18T06:49:15;102133.59;;;-1.74;60.80
59391;BME280;53405;57.012;40.984;2023-03-18T06:51:48;102157.91;;;-1.51;61.40
59391;BME280;53405;57.012;40.984;2023-03-18T06:54:17;102190.75;;;-1.27;61.04
59391;BME280;53405;57.012;40.984;2023-03-18T06:56:44;102182.09;;;-1.25;61.42
59391;BME280;53405;57.012;40.984;2023-03-18T06:59:16;102189.63;;;-1.18;62.53
59391;BME280;53405;57.012;40.984;2023-03-18T07:01:45;102186.41;;;-0.98;61.02
59391;BME280;53405;57.012;40.984;2023-03-18T07:04:16;102184.03;;;-1.04;59.80
59391;BME280;53405;57.012;40.984;2023-03-18T07:06:43;102196.63;;;-0.95;60.18
59391;BME280;53405;57.012;40.984;2023-03-18T07:09:10;102160.94;;;-1.10;58.58
59391;BME280;53405;57.012;40.984;2023-03-18T07:11:39;102191.50;;;-0.69;59.01
59391;BME280;53405;57.012;40.984;2023-03-18T07:14:37;102196.38;;;-0.60;57.91
59391;BME280;53405;57.012;40.984;2023-03-18T07:17:09;102196.88;;;-0.49;57.80
59391;BME280;53405;57.012;40.984;2023-03-18T07:19:38;102201.22;;;-0.26;58.18
59391;BME280;53405;57.012;40.984;2023-03-18T07:22:05;102197.69;;;-0.23;56.66
59391;BME280;53405;57.012;40.984;2023-03-18T07:24:33;102197.91;;;-0.29;56.87
59391;BME280;53405;57.012;40.984;2023-03-18T07:27:00;102173.84;;;-0.31;57.48
59391;BME280;53405;57.012;40.984;2023-03-18T07:29:27;102203.81;;;-0.01;56.33
59391;BME280;53405;57.012;40.984;2023-03-18T07:31:54;102212.94;;;0.10;56.34
59391;BME280;53405;57.012;40.984;2023-03-18T07:34:22;102209.97;;;0.21;57.63
59391;BME280;53405;57.012;40.984;2023-03-18T07:36:49;102202.41;;;0.14;56.48
59391;BME280;53405;57.012;40.984;2023-03-18T07:39:16;102206.50;;;0.20;56.52
59391;BME280;53405;57.012;40.984;2023-03-18T07:41:43;102214.28;;;0.20;54.67
59391;BME280;53405;57.012;40.984;2023-03-18T07:44:19;102213.38;;;0.21;54.94
59391;BME280;53405;57.012;40.984;2023-03-18T07:46:47;102206.72;;;0.14;54.12
59391;BME280;53405;57.012;40.984;2023-03-18T07:49:14;102201.75;;;0.31;55.47
59391;BME280;53405;57.012;40.984;2023-03-18T07:51:42;102200.31;;;0.48;54.60
59391;BME280;53405;57.012;40.984;2023-03-18T07:54:09;102219.19;;;0.74;58.28
59391;BME280;53405;57.012;40.984;2023-03-18T07:56:36;102199.97;;;0.79;57.03
59391;BME280;53405;57.012;40.984;2023-03-18T07:59:04;102216.88;;;1.10;57.33
59391;BME280;53405;57.012;40.984;2023-03-18T08:01:31;102218.97;;;1.22;55.01
59391;BME280;53405;57.012;40.984;2023-03-18T08:03:59;102203.47;;;1.21;53.49
59391;BME280;53405;57.012;40.984;2023-03-18T08:06:26;102212.78;;;1.26;54.43
59391;BME280;53405;57.012;40.984;2023-03-18T08:08:53;102219.72;;;1.47;55.32
59391;BME280;53405;57.012;40.984;2023-03-18T08:11:20;102210.97;;;1.49;53.38
59391;BME280;53405;57.012;40.984;2023-03-18T08:13:47;102215.69;;;1.39;52.53
59391;BME280;53405;57.012;40.984;2023-03-18T08:16:15;102189.41;;;1.26;51.54
59391;BME280;53405;57.012;40.984;2023-03-18T08:18:42;102204.88;;;1.50;50.85
59391;BME280;53405;57.012;40.984;2023-03-18T08:21:10;102220.38;;;1.72;50.96
59391;BME280;53405;57.012;40.984;2023-03-18T08:23:37;102220.72;;;2.04;50.61
59391;BME280;53405;57.012;40.984;2023-03-18T08:26:05;102224.59;;;2.71;51.83
59391;BME280;53405;57.012;40.984;2023-03-18T08:28:33;102211.34;;;2.95;48.54
59391;BME280;53405;57.012;40.984;2023-03-18T08:31:01;102201.16;;;3.08;47.72
59391;BME280;53405;57.012;40.984;2023-03-18T08:33:29;102209.97;;;3.75;47.75
59391;BME280;53405;57.012;40.984;2023-03-18T08:35:57;102201.25;;;3.92;45.59
59391;BME280;53405;57.012;40.984;2023-03-18T08:38:28;102210.47;;;4.31;45.07
59391;BME280;53405;57.012;40.984;2023-03-18T08:40:55;102208.47;;;4.37;44.56
59391;BME280;53405;57.012;40.984;2023-03-18T08:43:23;102213.84;;;4.81;45.14
59391;BME280;53405;57.012;40.984;2023-03-18T08:45:52;102204.91;;;5.01;44.26
59391;BME280;53405;57.012;40.984;2023-03-18T08:48:21;102209.53;;;4.96;43.43
59391;BME280;53405;57.012;40.984;2023-03-18T08:50:49;102207.34;;;4.88;42.23
59391;BME280;53405;57.012;40.984;2023-03-18T08:53:16;102200.91;;;5.10;42.72
59391;BME280;53405;57.012;40.984;2023-03-18T08:55:45;102190.28;;;4.67;43.46
59391;BME280;53405;57.012;40.984;2023-03-18T08:58:13;102208.13;;;4.91;44.18
59391;BME280;53405;57.012;40.984;2023-03-18T09:00:40;102192.47;;;4.59;44.06
59391;BME280;53405;57.012;40.984;2023-03-18T09:03:09;102172.47;;;3.78;44.81
59391;BME280;53405;57.012;40.984;2023-03-18T09:05:36;102180.63;;;3.37;47.12
59391;BME280;53405;57.012;40.984;2023-03-18T09:08:04;102196.13;;;2.68;45.06
59391;BME280;53405;57.012;40.984;2023-03-18T09:10:32;102190.88;;;2.51;47.13
59391;BME280;53405;57.012;40.984;2023-03-18T09:13:00;102184.47;;;2.39;48.23
59391;BME280;53405;57.012;40.984;2023-03-18T09:15:27;102184.75;;;1.95;46.80
59391;BME280;53405;57.012;40.984;2023-03-18T09:17:54;102141.16;;;1.62;47.85
59391;BME280;53405;57.012;40.984;2023-03-18T09:20:36;102184.81;;;2.12;49.87
59391;BME280;53405;57.012;40.984;2023-03-18T09:23:03;102178.31;;;2.04;47.51
59391;BME280;53405;57.012;40.984;2023-03-18T09:25:31;102169.19;;;1.74;46.09
59391;BME280;53405;57.012;40.984;2023-03-18T09:27:58;102180.69;;;1.89;49.44
59391;BME280;53405;57.012;40.984;2023-03-18T09:30:27;102174.72;;;1.67;46.38
59391;BME280;53405;57.012;40.984;2023-03-18T09:32:54;102102.94;;;1.24;45.04
59391;BME280;53405;57.012;40.984;2023-03-18T09:35:22;102180.97;;;1.62;45.07
59391;BME280;53405;57.012;40.984;2023-03-18T09:37:50;102181.88;;;1.61;44.81
59391;BME280;53405;57.012;40.984;2023-03-18T09:40:26;102175.66;;;1.66;45.38
59391;BME280;53405;57.012;40.984;2023-03-18T09:43:22;102168.69;;;1.66;44.49
59391;BME280;53405;57.012;40.984;2023-03-18T09:46:12;102124.63;;;1.44;43.30
59391;BME280;53405;57.012;40.984;2023-03-18T09:51:49;102159.75;;;1.72;42.14
59391;BME280;53405;57.012;40.984;2023-03-18T09:54:43;102149.63;;;1.86;44.65
59391;BME280;53405;57.012;40.984;2023-03-18T09:57:23;102100.81;;;1.34;40.44
59391;BME280;53405;57.012;40.984;2023-03-18T10:00:03;102151.59;;;1.60;40.52
59391;BME280;53405;57.012;40.984;2023-03-18T10:02:40;102157.66;;;1.61;41.47
59391;BME280;53405;57.012;40.984;2023-03-18T10:05:35;102152.75;;;1.74;39.98
59391;BME280;53405;57.012;40.984;2023-03-18T10:10:47;102153.13;;;1.85;37.83
59391;BME280;53405;57.012;40.984;2023-03-18T10:16:50;102124.78;;;1.60;38.34
59391;BME280;53405;57.012;40.984;2023-03-18T10:19:21;102132.81;;;1.74;37.39
59391;BME280;53405;57.012;40.984;2023-03-18T10:24:36;102136.25;;;1.75;36.55
59391;BME280;53405;57.012;40.984;2023-03-18T10:35:29;102117.03;;;1.79;37.29
59391;BME280;53405;57.012;40.984;2023-03-18T10:38:04;102125.81;;;1.95;39.09
59391;BME280;53405;57.012;40.984;2023-03-18T10:40:40;102118.59;;;2.02;36.37
59391;BME280;53405;57.012;40.984;2023-03-18T10:43:16;102113.31;;;2.04;35.80
59391;BME280;53405;57.012;40.984;2023-03-18T10:45:47;102116.25;;;2.15;37.93
59391;BME280;53405;57.012;40.984;2023-03-18T10:48:26;102113.66;;;2.15;36.91
59391;BME280;53405;57.012;40.984;2023-03-18T10:53:40;102099.59;;;2.38;39.56
59391;BME280;53405;57.012;40.984;2023-03-18T10:56:12;102121.91;;;2.42;38.56
59391;BME280;53405;57.012;40.984;2023-03-18T10:58:41;102083.06;;;2.39;39.77
59391;BME280;53405;57.012;40.984;2023-03-18T11:01:10;102116.28;;;2.51;37.84
59391;BME280;53405;57.012;40.984;2023-03-18T11:03:47;102079.81;;;2.70;38.19
59391;BME280;53405;57.012;40.984;2023-03-18T11:06:31;102114.22;;;3.95;36.50
59391;BME280;53405;57.012;40.984;2023-03-18T11:09:09;102068.44;;;4.37;36.02
59391;BME280;53405;57.012;40.984;2023-03-18T11:11:42;102092.19;;;5.38;34.70
59391;BME280;53405;57.012;40.984;2023-03-18T11:14:16;102112.31;;;6.08;32.57
59391;BME280;53405;57.012;40.984;2023-03-18T11:16:47;102069.63;;;6.07;31.95
59391;BME280;53405;57.012;40.984;2023-03-18T11:22:22;102086.00;;;7.42;32.91
59391;BME280;53405;57.012;40.984;2023-03-18T11:25:20;102100.44;;;6.97;31.59
59391;BME280;53405;57.012;40.984;2023-03-18T11:27:50;102087.22;;;6.73;32.03
59391;BME280;53405;57.012;40.984;2023-03-18T11:30:21;102082.88;;;6.99;31.50
59391;BME280;53405;57.012;40.984;2023-03-18T11:33:12;101934.88;;;6.14;30.93
59391;BME280;53405;57.012;40.984;2023-03-18T11:35:51;102077.56;;;6.73;31.58
59391;BME280;53405;57.012;40.984;2023-03-18T11:40:45;102082.56;;;7.03;31.45
59391;BME280;53405;57.012;40.984;2023-03-18T11:43:17;102076.75;;;6.73;31.48
59391;BME280;53405;57.012;40.984;2023-03-18T11:46:05;102066.28;;;6.85;32.66
59391;BME280;53405;57.012;40.984;2023-03-18T11:48:38;102065.75;;;6.80;30.71
59391;BME280;53405;57.012;40.984;2023-03-18T12:05:49;102037.44;;;7.50;32.31
59391;BME280;53405;57.012;40.984;2023-03-18T12:11:23;102038.91;;;7.91;31.79
59391;BME280;53405;57.012;40.984;2023-03-18T12:14:29;102034.41;;;8.17;31.10
59391;BME280;53405;57.012;40.984;2023-03-18T12:17:05;102036.56;;;8.47;31.46
59391;BME280;53405;57.012;40.984;2023-03-18T12:28:05;102019.78;;;7.02;31.12
59391;BME280;53405;57.012;40.984;2023-03-18T12:47:24;102016.38;;;5.52;31.50
59391;BME280;53405;57.012;40.984;2023-03-18T12:50:23;102025.53;;;5.16;32.22
59391;BME280;53405;57.012;40.984;2023-03-18T12:52:55;102025.25;;;5.21;34.24
59391;BME280;53405;57.012;40.984;2023-03-18T12:55:27;102020.28;;;5.59;33.48
59391;BME280;53405;57.012;40.984;2023-03-18T12:58:00;101992.31;;;5.89;33.72
59391;BME280;53405;57.012;40.984;2023-03-18T13:00:44;102015.91;;;5.60;32.36
59391;BME280;53405;57.012;40.984;2023-03-18T13:03:35;102017.97;;;5.26;32.72
59391;BME280;53405;57.012;40.984;2023-03-18T13:09:06;102007.91;;;5.34;33.23
59391;BME280;53405;57.012;40.984;2023-03-18T13:14:25;101999.41;;;5.87;31.35
59391;BME280;53405;57.012;40.984;2023-03-18T13:16:55;101997.69;;;5.73;31.58
59391;BME280;53405;57.012;40.984;2023-03-18T13:20:09;102012.44;;;5.59;32.05
59391;BME280;53405;57.012;40.984;2023-03-18T13:35:30;101995.97;;;5.72;31.33
59391;BME280;53405;57.012;40.984;2023-03-18T13:43:26;101994.13;;;5.59;31.85
59391;BME280;53405;57.012;40.984;2023-03-18T13:45:55;101997.03;;;5.55;33.12
59391;BME280;53405;57.012;40.984;2023-03-18T13:48:32;101993.06;;;5.49;32.42
59391;BME280;53405;57.012;40.984;2023-03-18T13:51:18;101991.69;;;5.00;31.53
59391;BME280;53405;57.012;40.984;2023-03-18T13:53:47;101982.63;;;4.92;32.75
59391;BME280;53405;57.012;40.984;2023-03-18T13:56:32;101979.38;;;4.88;32.35
59391;BME280;53405;57.012;40.984;2023-03-18T14:04:58;101978.81;;;4.38;33.87
59391;BME280;53405;57.012;40.984;2023-03-18T14:07:28;101931.97;;;3.90;34.04
59391;BME280;53405;57.012;40.984;2023-03-18T14:12:46;101972.09;;;3.88;35.54
59391;BME280;53405;57.012;40.984;2023-03-18T14:22:33;101953.22;;;3.36;37.07
59391;BME280;53405;57.012;40.984;2023-03-18T14:25:20;101967.47;;;3.29;36.75
59391;BME280;53405;57.012;40.984;2023-03-18T14:27:59;101966.63;;;3.29;36.99
59391;BME280;53405;57.012;40.984;2023-03-18T14:35:57;101975.69;;;3.21;38.65
59391;BME280;53405;57.012;40.984;2023-03-18T14:41:18;101950.81;;;3.00;37.85
59391;BME280;53405;57.012;40.984;2023-03-18T14:46:37;101943.25;;;2.95;39.15
59391;BME280;53405;57.012;40.984;2023-03-18T14:49:36;101973.94;;;3.22;39.66
59391;BME280;53405;57.012;40.984;2023-03-18T14:52:22;101983.59;;;3.20;38.97
59391;BME280;53405;57.012;40.984;2023-03-18T14:54:53;101981.34;;;3.30;40.28
59391;BME280;53405;57.012;40.984;2023-03-18T14:57:21;101940.16;;;3.04;45.08
59391;BME280;53405;57.012;40.984;2023-03-18T14:59:49;101939.13;;;3.07;41.84
59391;BME280;53405;57.012;40.984;2023-03-18T15:02:26;101983.53;;;3.37;40.29
59391;BME280;53405;57.012;40.984;2023-03-18T15:04:58;101987.91;;;3.37;40.24
59391;BME280;53405;57.012;40.984;2023-03-18T15:07:32;101975.78;;;3.20;43.73
59391;BME280;53405;57.012;40.984;2023-03-18T15:10:23;101982.66;;;3.21;40.97
59391;BME280;53405;57.012;40.984;2023-03-18T15:13:04;101990.31;;;3.24;41.21
59391;BME280;53405;57.012;40.984;2023-03-18T15:15:34;101990.31;;;3.24;41.69
59391;BME280;53405;57.012;40.984;2023-03-18T15:18:55;101985.28;;;3.21;41.47
59391;BME280;53405;57.012;40.984;2023-03-18T15:21:32;101973.78;;;2.92;43.64
59391;BME280;53405;57.012;40.984;2023-03-18T15:24:04;101981.19;;;2.99;43.69
59391;BME280;53405;57.012;40.984;2023-03-18T15:26:36;101991.25;;;2.89;44.04